Detall de PIREP

Printer-friendly versionPDF version

[2015/08/24 14:58:00]
Flight IATA:CT3208
Pilot Number:016
Company ICAO:CAT
Aircraft Type:B763/F
PAX:125
Departing Airport: LEPA
Destination Airport: EBBR
Alternate Airport:LEBL
Online: No
Route:MEROS UN853 DIK UW64 BATTY
Flight Level:F360
No Slew and time accel
No pause
Crash detect
Detect pilot in Cockpit between each 30 and 45 minutes
14:58 Zero fuel Weight: 244976 Lbs, Fuel Weight: 160864 Lbs
14:58 VATSIM:LEPA 241730Z 23011KT 9999 FEW018 29/16 Q1012 NOSIG
14:58 VATSIM:EBBR 241720Z 19015KT 9999 VCSH SCT036 19/13 Q0998 TEMPO 3500 SHRA
15:02 Parking Brakes off
15:10 Take-off
15:10 Take off Weight: 309747 Lbs
15:10 Wind: 000º @ 000 Knots Heading: 238º
15:10 POS N39º 33´ 17´´ E002º 43´ 36´´
15:10 Flaps:2 at 160 Knots
15:10 Gear Up: 163 Knots
15:11 Flaps:1 at 201 Knots
15:12 Flaps:0 at 243 Knots
15:22 TOC
15:22 Fuel Weight: 32495 Lb
15:25 Wind:270º@025 Knots Heading: 039º Ground Speed: 480 Knots Altitude 36013 ft
15:40 Wind:270º@025 Knots Heading: 034º Ground Speed: 478 Knots Altitude 35997 ft
15:55 Wind:270º@025 Knots Heading: 000º Ground Speed: 465 Knots Altitude 35994 ft
16:10 Wind:270º@025 Knots Heading: 354º Ground Speed: 461 Knots Altitude 35997 ft
16:25 Wind:270º@025 Knots Heading: 344º Ground Speed: 457 Knots Altitude 36000 ft
16:39 TOD
16:39 Fuel Weight: 19390 Lb
16:40 Wind:270º@025 Knots Heading: 341º Ground Speed: 440 Knots Altitude 35134 ft
16:55 Wind:270º@021 Knots Heading: 293º Ground Speed: 259 Knots Altitude 9071 ft
17:01 Flaps:1 at 242 Knots
17:01 Flaps:2 at 234 Knots
17:04 Flaps:3 at 188 Knots
17:07 Flaps:4 at 179 Knots
17:07 Gear Down: 177 Knots
17:07 Flaps:5 at 162 Knots
17:07 Flaps:6 at 151 Knots
17:10 Wind:000º@000 Knots Heading: 198º Ground Speed: 143 Knots Altitude 1108 ft
17:13 TouchDown:Rate-99 ft/min Speed: 137 Knots
17:13 VATSIM:EBBR 242120Z 21019KT 9999 -SHRA FEW014 BKN017 BKN020 16/13 Q1001 TEMPO 3500 SHRA BKN012
17:13 Land
17:13 Wind:000º@000 Knots
17:13 Heading: 192º
17:13 Flight Duration: 02:03
17:13 Landing Weight: 285823 Lbs
17:13 POS N50º 53´ 36´´ E004º 29´ 39´´
17:16 Parking brakes on
17:16 Block to Block Duration: 02:14
17:16 Final Fuel: 14049 Lbls
17:16 Spent Fuel: 146814 Lbls
17:16 Flight Length: 833 NM
17:16 TOD Land Length: 153 NM

Exportar CSV

Powered by Drupal - Modified by Danger4k